createdAt,value
2018-01-25T00:01:07.163Z,100692.85
2018-01-25T00:03:36.273Z,100689.70
2018-01-25T00:06:05.371Z,100693.51
2018-01-25T00:08:34.493Z,100690.75
2018-01-25T00:11:03.597Z,100689.06
2018-01-25T00:13:32.692Z,100692.06
2018-01-25T00:16:01.802Z,100689.28
2018-01-25T00:18:30.901Z,100689.39
2018-01-25T00:21:00.016Z,100688.42
2018-01-25T00:23:29.119Z,100680.40
2018-01-25T00:25:58.253Z,100680.55
2018-01-25T00:28:27.359Z,100687.06
2018-01-25T00:30:56.457Z,100679.04
2018-01-25T00:33:25.558Z,100689.95
2018-01-25T00:35:54.649Z,100687.16
2018-01-25T00:38:23.758Z,100676.80
2018-01-25T00:40:52.850Z,100684.75
2018-01-25T00:43:22.714Z,100691.18
2018-01-25T00:45:51.824Z,100683.66
2018-01-25T00:48:20.920Z,100676.64
2018-01-25T00:50:50.044Z,100685.64
2018-01-25T00:53:19.144Z,100682.21
2018-01-25T00:55:48.268Z,100681.31
2018-01-25T00:58:17.371Z,100693.62
2018-01-25T01:00:46.482Z,100683.11
2018-01-25T01:03:15.606Z,100680.61
2018-01-25T01:05:45.512Z,100678.27
2018-01-25T01:08:14.608Z,100664.92
2018-01-25T01:10:44.490Z,100664.42
2018-01-25T01:13:14.349Z,100659.20
2018-01-25T01:15:43.474Z,100660.82
2018-01-25T01:18:12.602Z,100664.64
2018-01-25T01:20:41.720Z,100667.16
2018-01-25T01:23:10.832Z,100654.89
2018-01-25T01:25:39.953Z,100656.48
2018-01-25T01:28:09.838Z,100651.13
2018-01-25T01:30:38.949Z,100647.45
2018-01-25T01:33:08.047Z,100639.59
2018-01-25T01:35:37.926Z,100647.12
2018-01-25T01:38:07.798Z,100648.77
2018-01-25T01:40:36.909Z,100644.98
2018-01-25T01:43:06.770Z,100643.90
2018-01-25T01:45:35.885Z,100638.96
2018-01-25T01:48:04.994Z,100635.30
2018-01-25T01:50:34.869Z,100638.82
2018-01-25T01:53:03.976Z,100636.87
2018-01-25T01:55:33.085Z,100638.66
2018-01-25T01:58:02.222Z,100634.80
2018-01-25T02:00:31.321Z,100630.38
2018-01-25T02:03:00.422Z,100627.74
2018-01-25T02:05:29.529Z,100620.53
2018-01-25T02:07:58.653Z,100621.64
2018-01-25T02:10:27.738Z,100620.56
2018-01-25T02:12:56.855Z,100616.73
2018-01-25T02:15:25.968Z,100614.69
2018-01-25T02:17:55.113Z,100615.05
2018-01-25T02:20:24.210Z,100622.52
2018-01-25T02:22:53.325Z,100615.87
2018-01-25T02:25:22.450Z,100608.11
2018-01-25T02:27:52.470Z,100606.96
2018-01-25T02:30:21.573Z,100609.19
2018-01-25T02:32:50.686Z,100606.41
2018-01-25T02:35:19.805Z,100603.22
2018-01-25T02:37:49.669Z,100601.02
2018-01-25T02:40:18.785Z,100605.26
2018-01-25T02:42:47.894Z,100604.11
2018-01-25T02:45:17.033Z,100600.34
2018-01-25T02:47:46.132Z,100600.64
2018-01-25T02:50:15.230Z,100604.73
2018-01-25T02:52:44.358Z,100599.42
2018-01-25T02:55:13.488Z,100601.28
2018-01-25T02:57:43.376Z,100598.88
2018-01-25T03:00:12.477Z,100602.21
2018-01-25T03:02:41.589Z,100599.87
2018-01-25T03:05:10.691Z,100596.79
2018-01-25T03:07:39.807Z,100602.51
2018-01-25T03:10:08.911Z,100601.83
2018-01-25T03:12:38.022Z,100598.86
2018-01-25T03:15:07.144Z,100596.00
2018-01-25T03:17:36.225Z,100589.30
2018-01-25T03:20:05.345Z,100589.55
2018-01-25T03:22:34.442Z,100583.83
2018-01-25T03:25:03.563Z,100577.24
2018-01-25T03:27:32.653Z,100567.55
2018-01-25T03:30:01.774Z,100561.91
2018-01-25T03:32:30.893Z,100563.60
2018-01-25T03:34:59.992Z,100567.78
2018-01-25T03:37:29.111Z,100568.02
2018-01-25T03:39:58.227Z,100577.42
2018-01-25T03:42:27.334Z,100579.06
2018-01-25T03:44:56.487Z,100571.98
2018-01-25T03:47:25.569Z,100564.92
2018-01-25T03:49:54.713Z,100561.47
2018-01-25T03:52:24.582Z,100566.50
2018-01-25T03:54:53.681Z,100569.28
2018-01-25T03:57:22.797Z,100570.80
2018-01-25T03:59:51.891Z,100574.50
2018-01-25T04:02:21.025Z,100568.77
2018-01-25T04:04:50.122Z,100558.46
2018-01-25T04:07:19.241Z,100567.34
2018-01-25T04:09:48.385Z,100565.11
2018-01-25T04:12:18.259Z,100576.77
2018-01-25T04:14:47.381Z,100577.00
2018-01-25T04:17:16.486Z,100573.69
2018-01-25T04:19:45.605Z,100574.41
2018-01-25T04:22:14.728Z,100571.48
2018-01-25T04:24:43.821Z,100568.47
2018-01-25T04:27:14.421Z,100576.34
2018-01-25T04:29:43.555Z,100576.92
2018-01-25T04:32:12.658Z,100583.41
2018-01-25T04:34:41.773Z,100575.18
2018-01-25T04:37:10.887Z,100580.30
2018-01-25T04:39:40.760Z,100584.70
2018-01-25T04:42:10.626Z,100583.27
2018-01-25T04:44:39.741Z,100580.07
2018-01-25T04:47:08.884Z,100587.59
2018-01-25T04:49:38.005Z,100574.23
2018-01-25T04:52:07.907Z,100570.97
2018-01-25T04:54:37.038Z,100565.11
2018-01-25T04:57:06.147Z,100572.75
2018-01-25T04:59:35.268Z,100571.55
2018-01-25T05:02:05.180Z,100569.67
2018-01-25T05:04:34.288Z,100569.83
2018-01-25T05:07:03.366Z,100573.72
2018-01-25T05:09:32.490Z,100574.59
2018-01-25T05:12:01.580Z,100574.89
2018-01-25T05:14:31.479Z,100577.86
2018-01-25T05:17:00.557Z,100575.63
2018-01-25T05:19:29.682Z,100573.40
2018-01-25T05:21:58.787Z,100580.36
2018-01-25T05:24:28.703Z,100571.48
2018-01-25T05:26:58.558Z,100572.98
2018-01-25T05:29:27.684Z,100575.73
2018-01-25T05:31:56.805Z,100577.55
2018-01-25T05:34:25.947Z,100575.02
2018-01-25T05:36:55.062Z,100567.38
2018-01-25T05:39:24.950Z,100577.00
2018-01-25T05:41:54.082Z,100565.23
2018-01-25T05:44:23.184Z,100570.16
2018-01-25T05:46:52.298Z,100569.77
2018-01-25T05:49:21.406Z,100572.56
2018-01-25T05:51:50.529Z,100572.75
2018-01-25T05:54:19.633Z,100567.44
2018-01-25T05:56:48.744Z,100572.78
2018-01-25T05:59:17.851Z,100573.75
2018-01-25T06:01:46.962Z,100568.15
2018-01-25T06:04:16.078Z,100567.31
2018-01-25T06:06:45.170Z,100568.54
2018-01-25T06:09:14.296Z,100568.54
2018-01-25T06:11:44.154Z,100579.52
2018-01-25T06:14:13.266Z,100572.39
2018-01-25T06:16:42.381Z,100569.61
2018-01-25T06:19:11.501Z,100563.42
2018-01-25T06:21:40.601Z,100561.61
2018-01-25T06:24:09.717Z,100566.14
2018-01-25T06:26:38.832Z,100565.78
2018-01-25T06:29:07.943Z,100575.18
2018-01-25T06:31:37.046Z,100571.68
2018-01-25T06:34:06.160Z,100570.38
2018-01-25T06:36:35.259Z,100572.00
2018-01-25T06:39:04.413Z,100574.42
2018-01-25T06:41:33.545Z,100570.28
2018-01-25T06:44:03.401Z,100569.14
2018-01-25T06:46:32.526Z,100565.05
2018-01-25T06:49:01.649Z,100563.47
2018-01-25T06:51:30.810Z,100566.47
2018-01-25T06:53:59.919Z,100562.65
2018-01-25T06:56:29.105Z,100560.41
2018-01-25T06:58:58.965Z,100558.34
2018-01-25T07:01:28.103Z,100559.50
2018-01-25T07:03:57.209Z,100555.87
2018-01-25T07:06:26.309Z,100551.44
2018-01-25T07:08:55.438Z,100554.03
2018-01-25T07:11:24.532Z,100551.17
2018-01-25T07:13:54.430Z,100551.07
2018-01-25T07:16:24.296Z,100547.56
2018-01-25T07:18:53.405Z,100547.92
2018-01-25T07:21:22.504Z,100545.22
2018-01-25T07:23:51.624Z,100546.95
2018-01-25T07:26:20.724Z,100545.48
2018-01-25T07:28:50.613Z,100541.59
2018-01-25T07:31:19.695Z,100550.05
2018-01-25T07:33:49.597Z,100550.36
2018-01-25T07:36:18.690Z,100548.65
2018-01-25T07:38:47.825Z,100558.92
2018-01-25T07:41:17.689Z,100558.80
2018-01-25T07:43:46.797Z,100555.42
2018-01-25T07:46:15.926Z,100560.84
2018-01-25T07:48:45.040Z,100555.98
2018-01-25T07:51:14.161Z,100555.23
2018-01-25T07:53:43.286Z,100552.72
2018-01-25T07:56:12.390Z,100555.91
2018-01-25T07:58:41.525Z,100557.19
2018-01-25T08:01:10.875Z,100556.64
2018-01-25T08:03:39.982Z,100564.72
2018-01-25T08:06:09.097Z,100561.63
2018-01-25T08:08:38.218Z,100567.73
2018-01-25T08:11:07.353Z,100561.77
2018-01-25T08:13:40.183Z,100555.95
2018-01-25T08:16:14.746Z,100550.59
2018-01-25T08:18:43.869Z,100555.53
2018-01-25T08:21:12.984Z,100559.05
2018-01-25T08:23:42.093Z,100566.81
2018-01-25T08:26:11.185Z,100573.89
2018-01-25T08:28:40.311Z,100575.52
2018-01-25T08:31:10.170Z,100566.88
2018-01-25T08:33:40.073Z,100566.14
2018-01-25T08:36:09.181Z,100569.89
2018-01-25T08:38:38.281Z,100560.70
2018-01-25T08:41:07.386Z,100568.91
2018-01-25T08:43:36.528Z,100569.89
2018-01-25T08:46:05.617Z,100572.84
2018-01-25T08:48:34.747Z,100575.31
2018-01-25T08:51:03.853Z,100574.20
2018-01-25T08:53:32.978Z,100576.75
2018-01-25T08:56:02.844Z,100574.16
2018-01-25T08:58:31.953Z,100575.45
2018-01-25T09:01:01.074Z,100580.93
2018-01-25T09:03:30.202Z,100588.51
2018-01-25T09:05:59.302Z,100580.70
2018-01-25T09:08:28.485Z,100584.34
2018-01-25T09:10:57.592Z,100576.06
2018-01-25T09:13:26.723Z,100582.72
2018-01-25T09:15:55.814Z,100584.70
2018-01-25T09:18:24.938Z,100587.59
2018-01-25T09:20:54.052Z,100586.37
2018-01-25T09:23:23.151Z,100594.61
2018-01-25T09:25:52.257Z,100593.75
2018-01-25T09:28:21.386Z,100592.03
2018-01-25T09:30:50.489Z,100591.84
2018-01-25T09:33:19.631Z,100603.63
2018-01-25T09:35:49.520Z,100598.57
2018-01-25T09:38:18.661Z,100602.27
2018-01-25T09:40:47.763Z,100605.09
2018-01-25T09:43:16.948Z,100603.27
2018-01-25T09:45:46.029Z,100606.04
2018-01-25T09:48:15.118Z,100613.18
2018-01-25T09:50:44.233Z,100607.20
2018-01-25T09:53:13.364Z,100600.72
2018-01-25T09:55:42.483Z,100597.76
2018-01-25T09:58:11.615Z,100602.02
2018-01-25T10:00:40.751Z,100605.73
2018-01-25T10:03:10.619Z,100594.81
2018-01-25T10:05:39.749Z,100598.44
2018-01-25T10:08:08.845Z,100599.91
2018-01-25T10:10:38.719Z,100601.41
2018-01-25T10:13:08.603Z,100598.73
2018-01-25T10:15:37.739Z,100590.03
2018-01-25T10:18:06.842Z,100599.72
2018-01-25T10:20:35.962Z,100593.06
2018-01-25T10:23:05.065Z,100589.31
2018-01-25T10:25:34.173Z,100593.61
2018-01-25T10:28:03.302Z,100587.55
2018-01-25T10:30:32.428Z,100585.58
2018-01-25T10:33:01.566Z,100580.30
2018-01-25T10:35:30.656Z,100580.36
2018-01-25T10:37:59.789Z,100572.39
2018-01-25T10:40:28.930Z,100564.00
2018-01-25T10:42:58.050Z,100562.09
2018-01-25T10:45:27.921Z,100559.05
2018-01-25T10:47:57.031Z,100549.78
2018-01-25T10:50:26.172Z,100550.62
2018-01-25T10:52:55.271Z,100543.55
2018-01-25T10:55:24.406Z,100547.17
2018-01-25T10:57:54.277Z,100537.22
2018-01-25T11:00:23.358Z,100538.99
2018-01-25T11:02:52.516Z,100540.11
2018-01-25T11:05:21.609Z,100527.31
2018-01-25T11:07:50.721Z,100526.97
2018-01-25T11:10:19.854Z,100528.27
2018-01-25T11:15:24.200Z,100521.03
2018-01-25T11:17:53.309Z,100510.09
2018-01-25T11:20:22.397Z,100508.19
2018-01-25T11:22:51.517Z,100509.75
2018-01-25T11:25:20.653Z,100507.23
2018-01-25T11:27:49.776Z,100506.70
2018-01-25T11:30:19.694Z,100496.98
2018-01-25T11:32:48.849Z,100493.23
2018-01-25T11:35:17.970Z,100492.27
2018-01-25T11:37:47.073Z,100492.77
2018-01-25T11:40:16.208Z,100482.00
2018-01-25T11:42:45.322Z,100477.95
2018-01-25T11:45:14.452Z,100477.20
2018-01-25T11:47:43.561Z,100469.14
2018-01-25T11:50:12.665Z,100476.36
2018-01-25T11:52:41.786Z,100473.23
2018-01-25T11:55:10.882Z,100467.36
2018-01-25T11:57:40.033Z,100468.57
2018-01-25T12:00:09.916Z,100470.91
2018-01-25T12:02:39.031Z,100464.73
2018-01-25T12:05:08.175Z,100460.39
2018-01-25T12:07:38.046Z,100454.23
2018-01-25T12:10:07.161Z,100450.64
2018-01-25T12:12:36.480Z,100443.27
2018-01-25T12:15:05.473Z,100438.68
2018-01-25T12:17:34.535Z,100429.45
2018-01-25T12:20:03.637Z,100429.84
2018-01-25T12:22:33.526Z,100427.18
2018-01-25T12:25:02.629Z,100415.95
2018-01-25T12:27:31.747Z,100415.63
2018-01-25T12:30:00.850Z,100417.00
2018-01-25T12:32:30.330Z,100410.09
2018-01-25T12:35:00.178Z,100410.91
2018-01-25T12:37:29.293Z,100407.88
2018-01-25T12:39:58.417Z,100401.33
2018-01-25T12:42:27.545Z,100392.55
2018-01-25T12:44:56.648Z,100387.66
2018-01-25T12:47:25.814Z,100385.58
2018-01-25T12:49:54.995Z,100380.56
2018-01-25T12:52:24.073Z,100376.80
2018-01-25T12:54:53.197Z,100378.95
2018-01-25T12:57:23.077Z,100380.68
2018-01-25T12:59:52.302Z,100368.34
2018-01-25T13:02:21.409Z,100367.48
2018-01-25T13:04:50.512Z,100366.17
2018-01-25T13:07:19.663Z,100356.23
2018-01-25T13:09:49.541Z,100359.07
2018-01-25T13:12:18.664Z,100356.41
2018-01-25T13:14:47.757Z,100354.14
2018-01-25T13:17:16.905Z,100346.00
2018-01-25T13:19:46.792Z,100342.03
2018-01-25T13:22:15.891Z,100342.23
2018-01-25T13:24:44.997Z,100332.84
2018-01-25T13:27:14.126Z,100331.20
2018-01-25T13:29:43.253Z,100326.95
2018-01-25T13:32:17.935Z,100329.75
2018-01-25T13:34:47.094Z,100324.26
2018-01-25T13:37:16.201Z,100316.09
2018-01-25T13:39:45.329Z,100317.47
2018-01-25T13:42:15.204Z,100321.95
2018-01-25T13:44:44.359Z,100321.16
2018-01-25T13:47:13.488Z,100312.85
2018-01-25T13:49:42.617Z,100306.73
2018-01-25T13:55:06.929Z,100309.69
2018-01-25T13:57:36.046Z,100312.22
2018-01-25T14:00:05.917Z,100312.36
2018-01-25T14:02:35.058Z,100308.59
2018-01-25T14:05:04.157Z,100308.69
2018-01-25T14:07:33.290Z,100313.73
2018-01-25T14:10:03.182Z,100318.86
2018-01-25T14:12:32.346Z,100309.97
2018-01-25T14:15:02.224Z,100309.33
2018-01-25T14:17:31.338Z,100303.42
2018-01-25T14:20:00.437Z,100300.52
2018-01-25T14:22:30.310Z,100303.98
2018-01-25T14:24:59.397Z,100301.95
2018-01-25T14:27:29.296Z,100300.31
2018-01-25T14:29:58.400Z,100301.10
2018-01-25T14:32:27.498Z,100300.16
2018-01-25T14:34:56.627Z,100303.98
2018-01-25T14:37:25.776Z,100308.89
2018-01-25T14:39:54.856Z,100289.33
2018-01-25T14:42:23.970Z,100299.38
2018-01-25T14:44:53.098Z,100292.36
2018-01-25T14:47:22.966Z,100296.56
2018-01-25T14:49:53.641Z,100296.17
2018-01-25T14:52:22.765Z,100294.11
2018-01-25T14:54:51.857Z,100301.66
2018-01-25T14:57:20.999Z,100305.62
2018-01-25T14:59:50.925Z,100296.90
2018-01-25T15:02:20.811Z,100298.86
2018-01-25T15:04:49.935Z,100298.41
2018-01-25T15:07:19.041Z,100305.78
2018-01-25T15:09:48.165Z,100308.74
2018-01-25T15:12:17.312Z,100311.14
2018-01-25T15:14:47.201Z,100302.70
2018-01-25T15:17:16.313Z,100303.41
2018-01-25T15:19:45.502Z,100312.56
2018-01-25T15:22:14.639Z,100302.98
2018-01-25T15:24:43.762Z,100302.53
2018-01-25T15:27:19.952Z,100301.63
2018-01-25T15:29:49.083Z,100298.78
2018-01-25T15:32:18.968Z,100296.97
2018-01-25T15:34:49.611Z,100302.48
2018-01-25T15:37:19.523Z,100296.23
2018-01-25T15:39:48.643Z,100298.09
2018-01-25T15:42:18.529Z,100294.34
2018-01-25T15:44:47.630Z,100295.60
2018-01-25T15:47:16.770Z,100295.00
2018-01-25T15:49:45.874Z,100292.99
2018-01-25T15:52:15.001Z,100290.32
2018-01-25T15:54:44.883Z,100290.47
2018-01-25T15:57:13.998Z,100290.02
2018-01-25T15:59:43.135Z,100288.59
2018-01-25T16:02:12.293Z,100284.91
2018-01-25T16:04:41.414Z,100284.88
2018-01-25T16:07:10.522Z,100292.41
2018-01-25T16:09:39.691Z,100296.69
2018-01-25T16:12:09.611Z,100288.64
2018-01-25T16:14:38.772Z,100287.41
2018-01-25T16:17:07.891Z,100286.61
2018-01-25T16:19:37.036Z,100286.93
2018-01-25T16:22:06.160Z,100281.72
2018-01-25T16:24:35.304Z,100278.30
2018-01-25T16:27:04.411Z,100271.06
2018-01-25T16:29:33.536Z,100279.73
2018-01-25T16:32:03.461Z,100275.02
2018-01-25T16:34:32.603Z,100282.80
2018-01-25T16:37:01.723Z,100278.37
2018-01-25T16:39:30.862Z,100282.47
2018-01-25T16:41:59.966Z,100285.45
2018-01-25T16:44:29.080Z,100273.12
2018-01-25T16:46:58.224Z,100277.18
2018-01-25T16:49:27.347Z,100278.19
2018-01-25T16:51:56.462Z,100271.99
2018-01-25T16:54:25.580Z,100275.74
2018-01-25T16:56:54.723Z,100273.88
2018-01-25T16:59:24.583Z,100282.16
2018-01-25T17:01:53.692Z,100291.00
2018-01-25T17:04:22.809Z,100288.83
2018-01-25T17:06:51.925Z,100293.03
2018-01-25T17:09:21.064Z,100295.59
2018-01-25T17:11:50.942Z,100296.14
2018-01-25T17:14:20.108Z,100285.66
2018-01-25T17:16:49.230Z,100288.66
2018-01-25T17:19:19.169Z,100283.55
2018-01-25T17:21:48.279Z,100291.30
2018-01-25T17:24:17.412Z,100294.95
2018-01-25T17:26:46.545Z,100289.59
2018-01-25T17:29:15.676Z,100291.92
2018-01-25T17:31:45.574Z,100283.63
2018-01-25T17:34:14.698Z,100280.80
2018-01-25T17:36:43.804Z,100283.26
2018-01-25T17:39:12.929Z,100295.06
2018-01-25T17:41:42.875Z,100299.58
2018-01-25T17:44:12.748Z,100296.50
2018-01-25T17:46:41.897Z,100293.84
2018-01-25T17:49:11.794Z,100292.57
2018-01-25T17:51:40.962Z,100294.72
2018-01-25T17:54:10.119Z,100297.12
2018-01-25T17:56:39.213Z,100298.09
2018-01-25T17:59:08.358Z,100298.78
2018-01-25T18:01:38.221Z,100293.67
2018-01-25T18:04:07.341Z,100289.80
2018-01-25T18:06:36.491Z,100290.53
2018-01-25T18:09:06.384Z,100293.98
2018-01-25T18:11:35.494Z,100301.50
2018-01-25T18:14:04.650Z,100303.56
2018-01-25T18:16:34.540Z,100306.78
2018-01-25T18:19:03.656Z,100298.58
2018-01-25T18:21:32.815Z,100299.94
2018-01-25T18:24:02.666Z,100302.58
2018-01-25T18:26:31.778Z,100302.45
2018-01-25T18:29:00.911Z,100305.47
2018-01-25T18:31:30.051Z,100307.91
2018-01-25T18:33:59.170Z,100307.73
2018-01-25T18:36:29.054Z,100298.03
2018-01-25T18:38:58.281Z,100299.08
2018-01-25T18:41:27.412Z,100303.42
2018-01-25T18:43:57.288Z,100299.77
2018-01-25T18:46:26.437Z,100301.77
2018-01-25T18:48:56.334Z,100297.78
2018-01-25T18:51:26.226Z,100299.13
2018-01-25T18:53:55.363Z,100296.73
2018-01-25T18:56:24.488Z,100298.44
2018-01-25T18:58:53.638Z,100292.69
2018-01-25T19:01:22.753Z,100291.87
2018-01-25T19:03:51.870Z,100291.14
2018-01-25T19:06:21.027Z,100286.22
2018-01-25T19:08:50.182Z,100287.63
2018-01-25T19:11:20.063Z,100292.59
2018-01-25T19:13:49.190Z,100292.59
2018-01-25T19:16:19.055Z,100296.84
2018-01-25T19:18:48.213Z,100286.58
2018-01-25T19:21:17.362Z,100288.30
2018-01-25T19:23:46.480Z,100286.34
2018-01-25T19:26:15.616Z,100283.15
2018-01-25T19:28:44.722Z,100280.08
2018-01-25T19:31:13.898Z,100276.70
2018-01-25T19:33:43.033Z,100279.09
2018-01-25T19:36:12.191Z,100274.59
2018-01-25T19:38:41.301Z,100276.46
2018-01-25T19:41:10.405Z,100274.73
2018-01-25T19:43:40.318Z,100264.77
2018-01-25T19:46:09.433Z,100258.67
2018-01-25T19:48:39.378Z,100257.98
2018-01-25T19:51:09.254Z,100254.50
2018-01-25T19:53:38.382Z,100248.85
2018-01-25T19:56:09.001Z,100246.26
2018-01-25T19:58:38.170Z,100246.31
2018-01-25T20:01:08.060Z,100237.88
2018-01-25T20:03:37.206Z,100245.92
2018-01-25T20:06:07.103Z,100239.71
2018-01-25T20:08:36.247Z,100242.53
2018-01-25T20:11:05.353Z,100233.39
2018-01-25T20:13:34.536Z,100242.48
2018-01-25T20:16:03.635Z,100248.61
2018-01-25T20:18:33.551Z,100253.45
2018-01-25T20:21:02.726Z,100242.31
2018-01-25T20:23:31.842Z,100237.45
2018-01-25T20:26:00.960Z,100235.02
2018-01-25T20:28:30.109Z,100242.16
2018-01-25T20:30:59.252Z,100234.00
2018-01-25T20:33:28.442Z,100243.11
2018-01-25T20:35:58.355Z,100238.86
2018-01-25T20:38:27.510Z,100239.74
2018-01-25T20:40:57.385Z,100236.80
2018-01-25T20:43:26.508Z,100240.48
2018-01-25T20:45:55.614Z,100240.36
2018-01-25T20:48:24.755Z,100244.91
2018-01-25T20:50:54.612Z,100241.70
2018-01-25T20:53:23.772Z,100234.88
2018-01-25T20:55:52.870Z,100236.71
2018-01-25T20:58:22.024Z,100232.42
2018-01-25T21:00:51.114Z,100231.69
2018-01-25T21:03:20.241Z,100229.91
2018-01-25T21:05:50.176Z,100238.25
2018-01-25T21:08:19.278Z,100235.56
2018-01-25T21:10:48.408Z,100230.89
2018-01-25T21:13:17.632Z,100231.62
2018-01-25T21:15:46.789Z,100231.38
2018-01-25T21:18:15.915Z,100238.70
2018-01-25T21:20:45.010Z,100241.45
2018-01-25T21:23:14.155Z,100241.95
2018-01-25T21:25:44.031Z,100243.06
2018-01-25T21:28:13.913Z,100241.15
2018-01-25T21:30:43.074Z,100245.51
2018-01-25T21:33:12.184Z,100240.45
2018-01-25T21:35:42.155Z,100239.86
2018-01-25T21:38:11.269Z,100233.05
2018-01-25T21:40:40.427Z,100241.00
2018-01-25T21:43:09.520Z,100235.67
2018-01-25T21:45:38.631Z,100241.39
2018-01-25T21:48:08.512Z,100244.53
2018-01-25T21:50:42.441Z,100242.55
2018-01-25T21:53:11.587Z,100245.44
2018-01-25T21:55:41.498Z,100251.35
2018-01-25T21:58:10.618Z,100259.64
2018-01-25T22:00:39.739Z,100245.99
2018-01-25T22:03:08.897Z,100251.96
2018-01-25T22:05:37.998Z,100252.12
2018-01-25T22:08:07.137Z,100245.45
2018-01-25T22:10:37.798Z,100252.80
2018-01-25T22:13:06.918Z,100249.91
2018-01-25T22:15:36.812Z,100243.02
2018-01-25T22:20:41.146Z,100239.11
2018-01-25T22:23:11.035Z,100244.39
2018-01-25T22:25:40.960Z,100242.73
2018-01-25T22:28:10.854Z,100243.80
2018-01-25T22:30:39.961Z,100247.59
2018-01-25T22:33:09.060Z,100240.41
2018-01-25T22:35:38.183Z,100248.45
2018-01-25T22:38:07.299Z,100261.98
2018-01-25T22:40:36.428Z,100262.36
2018-01-25T22:43:06.353Z,100271.22
2018-01-25T22:45:36.269Z,100270.84
2018-01-25T22:48:05.373Z,100270.80
2018-01-25T22:50:35.256Z,100266.80
2018-01-25T22:53:04.364Z,100263.30
2018-01-25T22:55:33.491Z,100268.83
2018-01-25T22:58:02.606Z,100269.31
2018-01-25T23:00:40.507Z,100276.21
2018-01-25T23:03:09.650Z,100277.78
2018-01-25T23:05:38.758Z,100275.96
2018-01-25T23:08:07.944Z,100268.40
2018-01-25T23:10:37.085Z,100265.98
2018-01-25T23:13:06.166Z,100266.06
2018-01-25T23:15:35.271Z,100264.70
2018-01-25T23:18:05.150Z,100262.42
2018-01-25T23:20:35.020Z,100271.39
2018-01-25T23:23:04.148Z,100275.59
2018-01-25T23:25:33.242Z,100271.02
2018-01-25T23:28:02.358Z,100275.44
2018-01-25T23:30:31.465Z,100273.41
2018-01-25T23:33:00.603Z,100261.49
2018-01-25T23:35:31.185Z,100266.03
2018-01-25T23:38:00.287Z,100274.56
2018-01-25T23:40:29.434Z,100275.79
2018-01-25T23:42:58.546Z,100270.63
2018-01-25T23:45:28.425Z,100274.26
2018-01-25T23:47:57.522Z,100260.20
2018-01-25T23:50:27.399Z,100264.13
2018-01-25T23:52:56.502Z,100260.46
2018-01-25T23:55:25.600Z,100260.46
2018-01-25T23:57:54.746Z,100261.75
